sensor_id;sensor_type;location;lat;lon;timestamp;P1;durP1;ratioP1;P2;durP2;ratioP2
73487;SDS011;61721;42.206;25.320;2023-07-13T00:01:58;9.20;;;5.65;;
73487;SDS011;61721;42.206;25.320;2023-07-13T00:04:27;8.40;;;5.15;;
73487;SDS011;61721;42.206;25.320;2023-07-13T00:06:54;10.05;;;5.82;;
73487;SDS011;61721;42.206;25.320;2023-07-13T00:09:21;8.55;;;5.80;;
73487;SDS011;61721;42.206;25.320;2023-07-13T00:11:50;8.40;;;5.72;;
73487;SDS011;61721;42.206;25.320;2023-07-13T00:14:20;8.60;;;5.63;;
73487;SDS011;61721;42.206;25.320;2023-07-13T00:16:47;9.75;;;5.63;;
73487;SDS011;61721;42.206;25.320;2023-07-13T00:19:15;14.10;;;6.07;;
73487;SDS011;61721;42.206;25.320;2023-07-13T00:21:43;8.90;;;5.50;;
73487;SDS011;61721;42.206;25.320;2023-07-13T00:24:11;10.15;;;5.70;;
73487;SDS011;61721;42.206;25.320;2023-07-13T00:26:40;9.82;;;5.32;;
73487;SDS011;61721;42.206;25.320;2023-07-13T00:29:11;9.25;;;5.32;;
73487;SDS011;61721;42.206;25.320;2023-07-13T00:31:38;9.45;;;5.72;;
73487;SDS011;61721;42.206;25.320;2023-07-13T00:34:05;9.15;;;5.38;;
73487;SDS011;61721;42.206;25.320;2023-07-13T00:36:32;10.88;;;5.57;;
73487;SDS011;61721;42.206;25.320;2023-07-13T00:39:01;7.97;;;5.30;;
73487;SDS011;61721;42.206;25.320;2023-07-13T00:41:30;10.57;;;6.28;;
73487;SDS011;61721;42.206;25.320;2023-07-13T00:43:58;7.93;;;5.63;;
73487;SDS011;61721;42.206;25.320;2023-07-13T00:46:26;9.70;;;6.00;;
73487;SDS011;61721;42.206;25.320;2023-07-13T00:48:56;8.18;;;5.82;;
73487;SDS011;61721;42.206;25.320;2023-07-13T00:51:27;10.43;;;5.68;;
73487;SDS011;61721;42.206;25.320;2023-07-13T00:53:59;9.77;;;6.00;;
73487;SDS011;61721;42.206;25.320;2023-07-13T00:56:36;11.38;;;5.75;;
73487;SDS011;61721;42.206;25.320;2023-07-13T00:59:04;10.35;;;6.20;;
73487;SDS011;61721;42.206;25.320;2023-07-13T01:01:33;8.95;;;6.07;;
73487;SDS011;61721;42.206;25.320;2023-07-13T01:04:02;8.68;;;5.50;;
73487;SDS011;61721;42.206;25.320;2023-07-13T01:06:33;8.73;;;5.93;;
73487;SDS011;61721;42.206;25.320;2023-07-13T01:09:03;9.25;;;6.10;;
73487;SDS011;61721;42.206;25.320;2023-07-13T01:11:32;11.05;;;6.25;;
73487;SDS011;61721;42.206;25.320;2023-07-13T01:14:00;9.82;;;5.60;;
73487;SDS011;61721;42.206;25.320;2023-07-13T01:16:28;8.68;;;6.07;;
73487;SDS011;61721;42.206;25.320;2023-07-13T01:18:57;9.73;;;6.00;;
73487;SDS011;61721;42.206;25.320;2023-07-13T01:21:28;11.02;;;5.90;;
73487;SDS011;61721;42.206;25.320;2023-07-13T01:23:56;9.73;;;6.32;;
73487;SDS011;61721;42.206;25.320;2023-07-13T01:26:24;10.48;;;6.45;;
73487;SDS011;61721;42.206;25.320;2023-07-13T01:28:51;9.85;;;6.10;;
73487;SDS011;61721;42.206;25.320;2023-07-13T01:31:18;10.10;;;6.00;;
73487;SDS011;61721;42.206;25.320;2023-07-13T01:33:45;8.88;;;6.03;;
73487;SDS011;61721;42.206;25.320;2023-07-13T01:36:12;10.85;;;6.38;;
73487;SDS011;61721;42.206;25.320;2023-07-13T01:38:41;9.13;;;6.70;;
73487;SDS011;61721;42.206;25.320;2023-07-13T01:41:08;10.85;;;7.03;;
73487;SDS011;61721;42.206;25.320;2023-07-13T01:43:35;9.80;;;6.45;;
73487;SDS011;61721;42.206;25.320;2023-07-13T01:46:02;10.70;;;6.53;;
73487;SDS011;61721;42.206;25.320;2023-07-13T01:48:30;8.77;;;6.15;;
73487;SDS011;61721;42.206;25.320;2023-07-13T01:50:57;13.40;;;6.65;;
73487;SDS011;61721;42.206;25.320;2023-07-13T01:53:24;11.48;;;6.55;;
73487;SDS011;61721;42.206;25.320;2023-07-13T01:55:53;9.88;;;6.20;;
73487;SDS011;61721;42.206;25.320;2023-07-13T01:58:21;8.93;;;6.22;;
73487;SDS011;61721;42.206;25.320;2023-07-13T02:00:48;12.50;;;6.78;;
73487;SDS011;61721;42.206;25.320;2023-07-13T02:03:16;10.98;;;6.72;;
73487;SDS011;61721;42.206;25.320;2023-07-13T02:05:45;11.68;;;6.63;;
73487;SDS011;61721;42.206;25.320;2023-07-13T02:08:12;11.48;;;7.40;;
73487;SDS011;61721;42.206;25.320;2023-07-13T02:10:39;13.25;;;6.70;;
73487;SDS011;61721;42.206;25.320;2023-07-13T02:13:08;11.85;;;6.82;;
73487;SDS011;61721;42.206;25.320;2023-07-13T02:15:37;10.98;;;6.60;;
73487;SDS011;61721;42.206;25.320;2023-07-13T02:18:06;12.35;;;6.55;;
73487;SDS011;61721;42.206;25.320;2023-07-13T02:20:33;13.20;;;7.10;;
73487;SDS011;61721;42.206;25.320;2023-07-13T02:23:00;11.40;;;7.38;;
73487;SDS011;61721;42.206;25.320;2023-07-13T02:25:27;11.27;;;7.38;;
73487;SDS011;61721;42.206;25.320;2023-07-13T02:27:55;15.18;;;7.68;;
73487;SDS011;61721;42.206;25.320;2023-07-13T02:30:23;14.35;;;7.50;;
73487;SDS011;61721;42.206;25.320;2023-07-13T02:32:51;10.23;;;7.45;;
73487;SDS011;61721;42.206;25.320;2023-07-13T02:35:18;13.40;;;8.40;;
73487;SDS011;61721;42.206;25.320;2023-07-13T02:37:45;13.13;;;7.80;;
73487;SDS011;61721;42.206;25.320;2023-07-13T02:40:12;16.17;;;7.65;;
73487;SDS011;61721;42.206;25.320;2023-07-13T02:42:40;14.05;;;7.80;;
73487;SDS011;61721;42.206;25.320;2023-07-13T02:45:07;12.38;;;7.65;;
73487;SDS011;61721;42.206;25.320;2023-07-13T02:47:40;13.00;;;7.88;;
73487;SDS011;61721;42.206;25.320;2023-07-13T02:50:08;12.52;;;8.00;;
73487;SDS011;61721;42.206;25.320;2023-07-13T02:52:36;13.57;;;7.53;;
73487;SDS011;61721;42.206;25.320;2023-07-13T02:55:03;14.07;;;8.05;;
73487;SDS011;61721;42.206;25.320;2023-07-13T02:57:30;11.95;;;7.80;;
73487;SDS011;61721;42.206;25.320;2023-07-13T02:59:58;10.48;;;7.38;;
73487;SDS011;61721;42.206;25.320;2023-07-13T03:02:25;11.10;;;7.68;;
73487;SDS011;61721;42.206;25.320;2023-07-13T03:04:55;11.25;;;7.70;;
73487;SDS011;61721;42.206;25.320;2023-07-13T03:07:22;11.98;;;7.65;;
73487;SDS011;61721;42.206;25.320;2023-07-13T03:09:53;19.95;;;7.93;;
73487;SDS011;61721;42.206;25.320;2023-07-13T03:12:22;15.95;;;7.72;;
73487;SDS011;61721;42.206;25.320;2023-07-13T03:14:49;16.30;;;7.85;;
73487;SDS011;61721;42.206;25.320;2023-07-13T03:17:16;12.90;;;8.50;;
73487;SDS011;61721;42.206;25.320;2023-07-13T03:19:43;11.82;;;7.53;;
73487;SDS011;61721;42.206;25.320;2023-07-13T03:22:16;10.05;;;7.32;;
73487;SDS011;61721;42.206;25.320;2023-07-13T03:24:43;11.73;;;7.93;;
73487;SDS011;61721;42.206;25.320;2023-07-13T03:27:10;13.32;;;8.43;;
73487;SDS011;61721;42.206;25.320;2023-07-13T03:29:37;11.10;;;7.40;;
73487;SDS011;61721;42.206;25.320;2023-07-13T03:32:05;12.82;;;7.80;;
73487;SDS011;61721;42.206;25.320;2023-07-13T03:34:33;14.30;;;7.80;;
73487;SDS011;61721;42.206;25.320;2023-07-13T03:37:00;14.35;;;7.93;;
73487;SDS011;61721;42.206;25.320;2023-07-13T03:39:29;11.60;;;8.77;;
73487;SDS011;61721;42.206;25.320;2023-07-13T03:41:56;13.50;;;7.80;;
73487;SDS011;61721;42.206;25.320;2023-07-13T03:44:23;18.80;;;8.15;;
73487;SDS011;61721;42.206;25.320;2023-07-13T03:46:50;14.02;;;7.97;;
73487;SDS011;61721;42.206;25.320;2023-07-13T03:49:17;14.88;;;8.32;;
73487;SDS011;61721;42.206;25.320;2023-07-13T03:51:44;11.85;;;7.97;;
73487;SDS011;61721;42.206;25.320;2023-07-13T03:54:12;18.67;;;8.30;;
73487;SDS011;61721;42.206;25.320;2023-07-13T03:56:40;15.95;;;8.18;;
73487;SDS011;61721;42.206;25.320;2023-07-13T03:59:07;11.50;;;7.43;;
73487;SDS011;61721;42.206;25.320;2023-07-13T04:01:34;12.20;;;7.68;;
73487;SDS011;61721;42.206;25.320;2023-07-13T04:04:01;19.55;;;8.73;;
73487;SDS011;61721;42.206;25.320;2023-07-13T04:06:29;14.95;;;9.05;;
73487;SDS011;61721;42.206;25.320;2023-07-13T04:08:57;16.95;;;8.15;;
73487;SDS011;61721;42.206;25.320;2023-07-13T04:11:26;16.00;;;8.15;;
73487;SDS011;61721;42.206;25.320;2023-07-13T04:13:56;15.25;;;8.05;;
73487;SDS011;61721;42.206;25.320;2023-07-13T04:16:23;10.75;;;7.10;;
73487;SDS011;61721;42.206;25.320;2023-07-13T04:18:51;12.57;;;8.15;;
73487;SDS011;61721;42.206;25.320;2023-07-13T04:21:20;12.30;;;8.70;;
73487;SDS011;61721;42.206;25.320;2023-07-13T04:23:48;13.68;;;8.27;;
73487;SDS011;61721;42.206;25.320;2023-07-13T04:26:15;12.80;;;8.85;;
73487;SDS011;61721;42.206;25.320;2023-07-13T04:28:42;11.77;;;7.45;;
73487;SDS011;61721;42.206;25.320;2023-07-13T04:31:11;10.73;;;7.75;;
73487;SDS011;61721;42.206;25.320;2023-07-13T04:33:38;12.45;;;7.85;;
73487;SDS011;61721;42.206;25.320;2023-07-13T04:36:05;13.07;;;7.97;;
73487;SDS011;61721;42.206;25.320;2023-07-13T04:38:34;38.25;;;9.13;;
73487;SDS011;61721;42.206;25.320;2023-07-13T04:41:03;15.35;;;8.13;;
73487;SDS011;61721;42.206;25.320;2023-07-13T04:43:32;28.00;;;8.65;;
73487;SDS011;61721;42.206;25.320;2023-07-13T04:46:03;11.93;;;8.23;;
73487;SDS011;61721;42.206;25.320;2023-07-13T04:48:33;15.25;;;8.68;;
73487;SDS011;61721;42.206;25.320;2023-07-13T04:51:01;12.52;;;8.27;;
73487;SDS011;61721;42.206;25.320;2023-07-13T04:53:28;17.58;;;8.68;;
73487;SDS011;61721;42.206;25.320;2023-07-13T04:55:56;14.98;;;8.40;;
73487;SDS011;61721;42.206;25.320;2023-07-13T04:58:23;22.15;;;8.57;;
73487;SDS011;61721;42.206;25.320;2023-07-13T05:00:51;19.00;;;9.48;;
73487;SDS011;61721;42.206;25.320;2023-07-13T05:03:18;15.75;;;9.57;;
73487;SDS011;61721;42.206;25.320;2023-07-13T05:05:55;13.10;;;9.05;;
73487;SDS011;61721;42.206;25.320;2023-07-13T05:08:23;19.60;;;9.52;;
73487;SDS011;61721;42.206;25.320;2023-07-13T05:10:50;14.73;;;10.00;;
73487;SDS011;61721;42.206;25.320;2023-07-13T05:13:18;16.98;;;9.60;;
73487;SDS011;61721;42.206;25.320;2023-07-13T05:15:45;13.27;;;8.77;;
73487;SDS011;61721;42.206;25.320;2023-07-13T05:18:13;16.48;;;9.52;;
73487;SDS011;61721;42.206;25.320;2023-07-13T05:20:40;15.98;;;9.18;;
73487;SDS011;61721;42.206;25.320;2023-07-13T05:23:09;12.07;;;8.20;;
73487;SDS011;61721;42.206;25.320;2023-07-13T05:25:36;14.88;;;9.27;;
73487;SDS011;61721;42.206;25.320;2023-07-13T05:28:03;13.05;;;8.13;;
73487;SDS011;61721;42.206;25.320;2023-07-13T05:30:30;11.25;;;8.52;;
73487;SDS011;61721;42.206;25.320;2023-07-13T05:32:59;17.33;;;7.80;;
73487;SDS011;61721;42.206;25.320;2023-07-13T05:35:26;13.20;;;8.52;;
73487;SDS011;61721;42.206;25.320;2023-07-13T05:37:53;12.13;;;7.38;;
73487;SDS011;61721;42.206;25.320;2023-07-13T05:40:21;15.05;;;8.98;;
73487;SDS011;61721;42.206;25.320;2023-07-13T05:42:48;13.20;;;8.45;;
73487;SDS011;61721;42.206;25.320;2023-07-13T05:45:15;13.38;;;7.88;;
73487;SDS011;61721;42.206;25.320;2023-07-13T05:47:42;14.73;;;8.52;;
73487;SDS011;61721;42.206;25.320;2023-07-13T05:50:10;14.32;;;8.25;;
73487;SDS011;61721;42.206;25.320;2023-07-13T05:52:38;13.82;;;8.90;;
73487;SDS011;61721;42.206;25.320;2023-07-13T05:55:05;15.00;;;8.93;;
73487;SDS011;61721;42.206;25.320;2023-07-13T05:57:34;14.48;;;8.10;;
73487;SDS011;61721;42.206;25.320;2023-07-13T06:00:01;11.90;;;8.18;;
73487;SDS011;61721;42.206;25.320;2023-07-13T06:02:29;14.95;;;8.70;;
73487;SDS011;61721;42.206;25.320;2023-07-13T06:04:56;11.00;;;7.97;;
73487;SDS011;61721;42.206;25.320;2023-07-13T06:07:23;11.65;;;8.52;;
73487;SDS011;61721;42.206;25.320;2023-07-13T06:09:50;13.35;;;8.27;;
73487;SDS011;61721;42.206;25.320;2023-07-13T06:12:17;11.52;;;7.38;;
73487;SDS011;61721;42.206;25.320;2023-07-13T06:14:46;10.45;;;7.70;;
73487;SDS011;61721;42.206;25.320;2023-07-13T06:17:13;13.57;;;8.38;;
73487;SDS011;61721;42.206;25.320;2023-07-13T06:19:40;13.73;;;8.10;;
73487;SDS011;61721;42.206;25.320;2023-07-13T06:22:07;11.98;;;8.02;;
73487;SDS011;61721;42.206;25.320;2023-07-13T06:24:34;11.98;;;8.20;;
73487;SDS011;61721;42.206;25.320;2023-07-13T06:27:04;11.95;;;7.80;;
73487;SDS011;61721;42.206;25.320;2023-07-13T06:29:32;15.57;;;8.13;;
73487;SDS011;61721;42.206;25.320;2023-07-13T06:32:00;12.23;;;8.90;;
73487;SDS011;61721;42.206;25.320;2023-07-13T06:34:27;16.95;;;9.05;;
73487;SDS011;61721;42.206;25.320;2023-07-13T06:36:55;13.98;;;8.68;;
73487;SDS011;61721;42.206;25.320;2023-07-13T06:39:22;13.45;;;8.43;;
73487;SDS011;61721;42.206;25.320;2023-07-13T07:49:49;12.80;;;8.48;;
73487;SDS011;61721;42.206;25.320;2023-07-13T07:52:23;14.23;;;8.82;;
73487;SDS011;61721;42.206;25.320;2023-07-13T07:57:56;14.27;;;7.35;;
73487;SDS011;61721;42.206;25.320;2023-07-13T08:00:27;13.02;;;8.55;;
73487;SDS011;61721;42.206;25.320;2023-07-13T08:02:58;12.05;;;7.68;;
73487;SDS011;61721;42.206;25.320;2023-07-13T08:05:30;12.13;;;7.97;;
73487;SDS011;61721;42.206;25.320;2023-07-13T08:07:57;11.57;;;8.48;;
73487;SDS011;61721;42.206;25.320;2023-07-13T08:10:24;12.23;;;8.25;;
73487;SDS011;61721;42.206;25.320;2023-07-13T08:12:51;12.15;;;7.90;;
73487;SDS011;61721;42.206;25.320;2023-07-13T08:15:19;16.08;;;8.77;;
73487;SDS011;61721;42.206;25.320;2023-07-13T08:17:48;12.60;;;7.82;;
73487;SDS011;61721;42.206;25.320;2023-07-13T08:20:16;14.25;;;7.15;;
73487;SDS011;61721;42.206;25.320;2023-07-13T08:22:44;11.70;;;7.30;;
73487;SDS011;61721;42.206;25.320;2023-07-13T08:25:11;10.38;;;7.20;;
73487;SDS011;61721;42.206;25.320;2023-07-13T08:27:38;12.05;;;7.80;;
73487;SDS011;61721;42.206;25.320;2023-07-13T08:30:11;13.57;;;7.93;;
73487;SDS011;61721;42.206;25.320;2023-07-13T08:32:38;19.65;;;7.47;;
73487;SDS011;61721;42.206;25.320;2023-07-13T08:35:06;10.38;;;7.43;;
73487;SDS011;61721;42.206;25.320;2023-07-13T08:37:33;11.50;;;7.25;;
73487;SDS011;61721;42.206;25.320;2023-07-13T08:40:02;11.48;;;7.25;;
73487;SDS011;61721;42.206;25.320;2023-07-13T08:42:32;11.90;;;7.55;;
73487;SDS011;61721;42.206;25.320;2023-07-13T08:45:12;11.75;;;6.80;;
73487;SDS011;61721;42.206;25.320;2023-07-13T08:47:44;12.20;;;7.60;;
73487;SDS011;61721;42.206;25.320;2023-07-13T08:50:15;9.75;;;6.80;;
73487;SDS011;61721;42.206;25.320;2023-07-13T08:52:46;9.77;;;6.65;;
73487;SDS011;61721;42.206;25.320;2023-07-13T08:55:16;17.17;;;6.63;;
73487;SDS011;61721;42.206;25.320;2023-07-13T08:57:48;9.52;;;6.07;;
73487;SDS011;61721;42.206;25.320;2023-07-13T09:00:22;13.07;;;7.45;;
73487;SDS011;61721;42.206;25.320;2023-07-13T09:03:00;9.48;;;7.00;;
73487;SDS011;61721;42.206;25.320;2023-07-13T09:05:29;10.43;;;6.95;;
73487;SDS011;61721;42.206;25.320;2023-07-13T09:08:07;10.68;;;7.68;;
73487;SDS011;61721;42.206;25.320;2023-07-13T09:10:58;13.63;;;6.60;;
73487;SDS011;61721;42.206;25.320;2023-07-13T09:13:32;9.13;;;6.10;;
73487;SDS011;61721;42.206;25.320;2023-07-13T09:16:10;11.60;;;7.07;;
73487;SDS011;61721;42.206;25.320;2023-07-13T09:18:38;11.55;;;6.65;;
73487;SDS011;61721;42.206;25.320;2023-07-13T09:21:13;14.73;;;7.22;;
73487;SDS011;61721;42.206;25.320;2023-07-13T09:23:43;11.23;;;6.68;;
73487;SDS011;61721;42.206;25.320;2023-07-13T09:26:12;12.05;;;6.65;;
73487;SDS011;61721;42.206;25.320;2023-07-13T09:28:43;9.68;;;5.78;;
73487;SDS011;61721;42.206;25.320;2023-07-13T09:31:13;12.60;;;6.55;;
73487;SDS011;61721;42.206;25.320;2023-07-13T09:33:47;11.27;;;6.97;;
73487;SDS011;61721;42.206;25.320;2023-07-13T09:36:22;11.45;;;6.78;;
73487;SDS011;61721;42.206;25.320;2023-07-13T09:38:53;9.73;;;6.25;;
73487;SDS011;61721;42.206;25.320;2023-07-13T09:41:28;11.25;;;6.53;;
73487;SDS011;61721;42.206;25.320;2023-07-13T09:44:09;18.77;;;6.70;;
73487;SDS011;61721;42.206;25.320;2023-07-13T09:46:38;16.23;;;6.82;;
73487;SDS011;61721;42.206;25.320;2023-07-13T09:49:07;9.80;;;6.22;;
73487;SDS011;61721;42.206;25.320;2023-07-13T09:51:36;8.82;;;6.20;;
73487;SDS011;61721;42.206;25.320;2023-07-13T09:54:04;9.85;;;5.70;;
73487;SDS011;61721;42.206;25.320;2023-07-13T09:56:32;11.30;;;5.88;;
73487;SDS011;61721;42.206;25.320;2023-07-13T09:58:59;9.85;;;6.07;;
73487;SDS011;61721;42.206;25.320;2023-07-13T10:01:33;13.82;;;6.78;;
73487;SDS011;61721;42.206;25.320;2023-07-13T10:04:02;11.98;;;6.40;;
73487;SDS011;61721;42.206;25.320;2023-07-13T10:06:38;10.32;;;5.95;;
73487;SDS011;61721;42.206;25.320;2023-07-13T10:09:08;10.25;;;6.07;;
73487;SDS011;61721;42.206;25.320;2023-07-13T10:11:39;11.40;;;5.70;;
73487;SDS011;61721;42.206;25.320;2023-07-13T10:14:10;8.85;;;5.50;;
73487;SDS011;61721;42.206;25.320;2023-07-13T10:16:41;10.05;;;5.72;;
73487;SDS011;61721;42.206;25.320;2023-07-13T10:19:11;10.20;;;5.63;;
73487;SDS011;61721;42.206;25.320;2023-07-13T10:21:43;11.13;;;5.75;;
73487;SDS011;61721;42.206;25.320;2023-07-13T10:24:18;9.82;;;5.57;;
73487;SDS011;61721;42.206;25.320;2023-07-13T10:27:00;12.40;;;6.72;;
73487;SDS011;61721;42.206;25.320;2023-07-13T10:29:34;9.75;;;5.45;;
73487;SDS011;61721;42.206;25.320;2023-07-13T10:32:07;10.27;;;5.53;;
73487;SDS011;61721;42.206;25.320;2023-07-13T10:34:36;9.60;;;5.50;;
73487;SDS011;61721;42.206;25.320;2023-07-13T10:37:04;10.75;;;5.60;;
73487;SDS011;61721;42.206;25.320;2023-07-13T10:39:34;7.85;;;5.50;;
73487;SDS011;61721;42.206;25.320;2023-07-13T10:42:06;12.65;;;5.50;;
73487;SDS011;61721;42.206;25.320;2023-07-13T10:44:41;8.43;;;5.18;;
73487;SDS011;61721;42.206;25.320;2023-07-13T10:47:08;9.02;;;4.78;;
73487;SDS011;61721;42.206;25.320;2023-07-13T10:49:43;10.73;;;5.15;;
73487;SDS011;61721;42.206;25.320;2023-07-13T10:58:02;9.73;;;5.47;;
73487;SDS011;61721;42.206;25.320;2023-07-13T11:00:42;11.80;;;5.40;;
73487;SDS011;61721;42.206;25.320;2023-07-13T11:03:16;11.32;;;5.32;;
73487;SDS011;61721;42.206;25.320;2023-07-13T11:05:48;15.50;;;5.30;;
73487;SDS011;61721;42.206;25.320;2023-07-13T11:08:20;6.78;;;4.55;;
73487;SDS011;61721;42.206;25.320;2023-07-13T11:10:59;8.60;;;4.60;;
73487;SDS011;61721;42.206;25.320;2023-07-13T11:16:44;8.80;;;4.80;;
73487;SDS011;61721;42.206;25.320;2023-07-13T11:22:19;6.82;;;4.32;;
73487;SDS011;61721;42.206;25.320;2023-07-13T11:24:56;13.88;;;4.38;;
73487;SDS011;61721;42.206;25.320;2023-07-13T11:30:14;13.35;;;6.38;;
73487;SDS011;61721;42.206;25.320;2023-07-13T11:32:50;8.30;;;4.30;;
73487;SDS011;61721;42.206;25.320;2023-07-13T11:35:31;7.90;;;4.47;;
73487;SDS011;61721;42.206;25.320;2023-07-13T11:38:01;7.25;;;4.38;;
73487;SDS011;61721;42.206;25.320;2023-07-13T11:40:41;8.70;;;4.35;;
73487;SDS011;61721;42.206;25.320;2023-07-13T11:43:11;9.93;;;4.85;;
73487;SDS011;61721;42.206;25.320;2023-07-13T11:45:42;8.43;;;5.25;;
73487;SDS011;61721;42.206;25.320;2023-07-13T11:48:19;8.75;;;4.80;;
73487;SDS011;61721;42.206;25.320;2023-07-13T11:53:36;11.77;;;4.95;;
73487;SDS011;61721;42.206;25.320;2023-07-13T11:56:06;9.13;;;5.93;;
73487;SDS011;61721;42.206;25.320;2023-07-13T11:58:34;12.40;;;6.32;;
73487;SDS011;61721;42.206;25.320;2023-07-13T12:01:03;11.25;;;6.50;;
73487;SDS011;61721;42.206;25.320;2023-07-13T12:03:31;9.52;;;5.65;;
73487;SDS011;61721;42.206;25.320;2023-07-13T12:06:00;11.65;;;6.07;;
73487;SDS011;61721;42.206;25.320;2023-07-13T12:08:31;11.02;;;4.50;;
73487;SDS011;61721;42.206;25.320;2023-07-13T12:11:05;16.52;;;5.15;;
73487;SDS011;61721;42.206;25.320;2023-07-13T12:13:39;7.57;;;4.45;;
73487;SDS011;61721;42.206;25.320;2023-07-13T12:16:15;9.40;;;4.90;;
73487;SDS011;61721;42.206;25.320;2023-07-13T12:18:47;11.27;;;4.75;;
73487;SDS011;61721;42.206;25.320;2023-07-13T12:21:17;6.85;;;4.80;;
73487;SDS011;61721;42.206;25.320;2023-07-13T12:23:47;10.05;;;4.43;;
73487;SDS011;61721;42.206;25.320;2023-07-13T12:26:15;10.80;;;4.97;;
73487;SDS011;61721;42.206;25.320;2023-07-13T12:28:46;10.30;;;3.90;;
73487;SDS011;61721;42.206;25.320;2023-07-13T12:34:10;9.82;;;3.65;;
73487;SDS011;61721;42.206;25.320;2023-07-13T12:36:40;10.75;;;3.75;;
73487;SDS011;61721;42.206;25.320;2023-07-13T12:39:14;7.63;;;3.50;;
73487;SDS011;61721;42.206;25.320;2023-07-13T12:41:43;7.30;;;3.53;;
73487;SDS011;61721;42.206;25.320;2023-07-13T12:44:11;6.97;;;3.95;;
73487;SDS011;61721;42.206;25.320;2023-07-13T12:46:47;12.35;;;4.57;;
73487;SDS011;61721;42.206;25.320;2023-07-13T12:49:19;6.68;;;3.72;;
73487;SDS011;61721;42.206;25.320;2023-07-13T12:51:50;7.70;;;3.88;;
73487;SDS011;61721;42.206;25.320;2023-07-13T12:54:22;8.13;;;3.50;;
73487;SDS011;61721;42.206;25.320;2023-07-13T12:56:52;7.82;;;3.90;;
73487;SDS011;61721;42.206;25.320;2023-07-13T12:59:21;9.68;;;3.92;;
73487;SDS011;61721;42.206;25.320;2023-07-13T13:01:53;8.77;;;4.00;;
73487;SDS011;61721;42.206;25.320;2023-07-13T13:04:20;8.35;;;4.13;;
73487;SDS011;61721;42.206;25.320;2023-07-13T13:06:48;8.60;;;3.80;;
73487;SDS011;61721;42.206;25.320;2023-07-13T13:09:16;10.45;;;4.03;;
73487;SDS011;61721;42.206;25.320;2023-07-13T13:11:53;10.30;;;3.58;;
73487;SDS011;61721;42.206;25.320;2023-07-13T13:14:20;8.13;;;3.83;;
73487;SDS011;61721;42.206;25.320;2023-07-13T13:16:49;10.02;;;4.00;;
73487;SDS011;61721;42.206;25.320;2023-07-13T13:19:20;5.97;;;3.45;;
73487;SDS011;61721;42.206;25.320;2023-07-13T13:21:50;8.05;;;3.78;;
73487;SDS011;61721;42.206;25.320;2023-07-13T13:24:21;8.32;;;3.70;;
73487;SDS011;61721;42.206;25.320;2023-07-13T13:26:50;10.43;;;4.00;;
73487;SDS011;61721;42.206;25.320;2023-07-13T13:29:19;9.38;;;3.72;;
73487;SDS011;61721;42.206;25.320;2023-07-13T13:31:49;11.02;;;3.67;;
73487;SDS011;61721;42.206;25.320;2023-07-13T13:34:21;10.43;;;3.97;;
73487;SDS011;61721;42.206;25.320;2023-07-13T13:36:50;18.00;;;4.15;;
73487;SDS011;61721;42.206;25.320;2023-07-13T13:39:19;9.50;;;4.00;;
73487;SDS011;61721;42.206;25.320;2023-07-13T13:41:49;9.38;;;3.88;;
73487;SDS011;61721;42.206;25.320;2023-07-13T13:44:17;11.60;;;3.60;;
73487;SDS011;61721;42.206;25.320;2023-07-13T13:46:46;21.05;;;4.05;;
73487;SDS011;61721;42.206;25.320;2023-07-13T13:49:16;9.15;;;3.55;;
73487;SDS011;61721;42.206;25.320;2023-07-13T13:51:53;10.50;;;3.60;;
73487;SDS011;61721;42.206;25.320;2023-07-13T13:56:52;13.75;;;3.60;;
73487;SDS011;61721;42.206;25.320;2023-07-13T13:59:21;12.57;;;3.80;;
73487;SDS011;61721;42.206;25.320;2023-07-13T14:01:48;10.68;;;3.50;;
73487;SDS011;61721;42.206;25.320;2023-07-13T14:04:17;23.08;;;4.32;;
73487;SDS011;61721;42.206;25.320;2023-07-13T14:06:45;32.17;;;5.63;;
73487;SDS011;61721;42.206;25.320;2023-07-13T14:09:19;27.55;;;5.00;;
73487;SDS011;61721;42.206;25.320;2023-07-13T14:11:47;8.65;;;3.60;;
73487;SDS011;61721;42.206;25.320;2023-07-13T14:14:17;11.85;;;3.95;;
73487;SDS011;61721;42.206;25.320;2023-07-13T14:16:47;8.70;;;3.83;;
73487;SDS011;61721;42.206;25.320;2023-07-13T14:19:19;9.52;;;3.80;;
73487;SDS011;61721;42.206;25.320;2023-07-13T14:21:47;8.07;;;3.80;;
73487;SDS011;61721;42.206;25.320;2023-07-13T14:24:16;48.53;;;7.32;;
73487;SDS011;61721;42.206;25.320;2023-07-13T14:26:43;12.57;;;3.40;;
73487;SDS011;61721;42.206;25.320;2023-07-13T14:29:12;18.02;;;4.72;;
73487;SDS011;61721;42.206;25.320;2023-07-13T14:31:42;14.35;;;3.80;;
73487;SDS011;61721;42.206;25.320;2023-07-13T14:34:10;16.45;;;4.85;;
73487;SDS011;61721;42.206;25.320;2023-07-13T14:36:40;11.93;;;4.05;;
73487;SDS011;61721;42.206;25.320;2023-07-13T14:39:11;9.48;;;3.85;;
73487;SDS011;61721;42.206;25.320;2023-07-13T14:41:41;10.82;;;3.88;;
73487;SDS011;61721;42.206;25.320;2023-07-13T14:44:10;13.02;;;3.55;;
73487;SDS011;61721;42.206;25.320;2023-07-13T14:46:39;16.85;;;4.13;;
73487;SDS011;61721;42.206;25.320;2023-07-13T14:49:09;8.38;;;3.45;;
73487;SDS011;61721;42.206;25.320;2023-07-13T14:51:46;12.98;;;4.00;;
73487;SDS011;61721;42.206;25.320;2023-07-13T14:54:22;14.20;;;3.90;;
73487;SDS011;61721;42.206;25.320;2023-07-13T14:56:52;15.13;;;3.53;;
73487;SDS011;61721;42.206;25.320;2023-07-13T14:59:22;10.45;;;3.72;;
73487;SDS011;61721;42.206;25.320;2023-07-13T15:01:50;16.20;;;3.85;;
73487;SDS011;61721;42.206;25.320;2023-07-13T15:04:17;12.52;;;3.80;;
73487;SDS011;61721;42.206;25.320;2023-07-13T15:06:52;7.60;;;3.65;;
73487;SDS011;61721;42.206;25.320;2023-07-13T15:09:39;13.13;;;4.22;;
73487;SDS011;61721;42.206;25.320;2023-07-13T15:12:09;12.60;;;3.67;;
73487;SDS011;61721;42.206;25.320;2023-07-13T15:14:37;14.30;;;3.78;;
73487;SDS011;61721;42.206;25.320;2023-07-13T15:17:04;12.50;;;3.90;;
73487;SDS011;61721;42.206;25.320;2023-07-13T15:19:33;12.23;;;3.92;;
73487;SDS011;61721;42.206;25.320;2023-07-13T15:22:01;12.10;;;3.55;;
73487;SDS011;61721;42.206;25.320;2023-07-13T15:24:29;8.68;;;3.20;;
73487;SDS011;61721;42.206;25.320;2023-07-13T15:26:56;11.18;;;3.25;;
73487;SDS011;61721;42.206;25.320;2023-07-13T15:29:24;6.80;;;3.25;;
73487;SDS011;61721;42.206;25.320;2023-07-13T15:31:51;11.27;;;3.75;;
73487;SDS011;61721;42.206;25.320;2023-07-13T15:34:19;13.95;;;3.83;;
73487;SDS011;61721;42.206;25.320;2023-07-13T15:36:51;10.70;;;3.30;;
73487;SDS011;61721;42.206;25.320;2023-07-13T15:39:18;9.32;;;3.47;;
73487;SDS011;61721;42.206;25.320;2023-07-13T15:41:46;12.35;;;3.53;;
73487;SDS011;61721;42.206;25.320;2023-07-13T15:47:02;13.10;;;3.25;;
73487;SDS011;61721;42.206;25.320;2023-07-13T15:49:29;10.02;;;3.38;;
73487;SDS011;61721;42.206;25.320;2023-07-13T15:51:55;13.48;;;3.70;;
73487;SDS011;61721;42.206;25.320;2023-07-13T15:54:23;17.77;;;5.90;;
73487;SDS011;61721;42.206;25.320;2023-07-13T15:56:51;14.13;;;4.90;;
73487;SDS011;61721;42.206;25.320;2023-07-13T15:59:20;14.05;;;3.83;;
73487;SDS011;61721;42.206;25.320;2023-07-13T16:01:48;9.90;;;3.78;;
73487;SDS011;61721;42.206;25.320;2023-07-13T16:04:16;10.63;;;3.53;;
73487;SDS011;61721;42.206;25.320;2023-07-13T16:06:44;9.88;;;3.28;;
73487;SDS011;61721;42.206;25.320;2023-07-13T16:09:15;9.70;;;3.22;;
73487;SDS011;61721;42.206;25.320;2023-07-13T16:11:47;12.60;;;3.60;;
73487;SDS011;61721;42.206;25.320;2023-07-13T16:14:16;9.68;;;3.60;;
73487;SDS011;61721;42.206;25.320;2023-07-13T16:16:43;11.48;;;3.75;;